createdAt,value
2023-05-25T00:01:04.453Z,10.70
2023-05-25T00:03:06.231Z,10.60
2023-05-25T00:05:10.998Z,10.70
2023-05-25T00:07:12.696Z,10.80
2023-05-25T00:09:14.475Z,10.80
2023-05-25T00:11:19.507Z,10.90
2023-05-25T00:13:21.214Z,10.80
2023-05-25T00:15:22.998Z,10.90
2023-05-25T00:17:24.730Z,11.00
2023-05-25T00:19:26.504Z,10.90
2023-05-25T00:21:28.167Z,10.90
2023-05-25T00:23:29.792Z,10.90
2023-05-25T00:25:31.421Z,10.90
2023-05-25T00:27:33.106Z,11.00
2023-05-25T00:29:35.667Z,11.10
2023-05-25T00:31:37.898Z,11.10
2023-05-25T00:33:39.628Z,11.20
2023-05-25T00:35:43.280Z,11.20
2023-05-25T00:37:45.087Z,11.30
2023-05-25T00:39:46.781Z,11.20
2023-05-25T00:41:49.010Z,11.10
2023-05-25T00:43:50.798Z,11.10
2023-05-25T00:45:52.887Z,11.00
2023-05-25T00:47:54.664Z,11.00
2023-05-25T00:49:56.609Z,10.90
2023-05-25T00:51:58.350Z,10.90
2023-05-25T00:53:59.956Z,10.80
2023-05-25T00:56:04.775Z,11.00
2023-05-25T00:58:07.816Z,10.80
2023-05-25T01:00:12.571Z,10.80
2023-05-25T01:02:17.220Z,10.80
2023-05-25T01:04:21.554Z,10.70
2023-05-25T01:06:23.544Z,10.60
2023-05-25T01:08:25.698Z,10.60
2023-05-25T01:10:28.707Z,10.60
2023-05-25T01:12:30.517Z,10.60
2023-05-25T01:14:32.838Z,10.60
2023-05-25T01:16:35.351Z,10.60
2023-05-25T01:18:37.682Z,10.40
2023-05-25T01:20:39.365Z,10.20
2023-05-25T01:22:47.514Z,10.40
2023-05-25T01:24:51.431Z,10.50
2023-05-25T01:26:56.266Z,10.60
2023-05-25T01:28:58.335Z,10.70
2023-05-25T01:31:00.742Z,10.80
2023-05-25T01:33:02.929Z,10.60
2023-05-25T01:35:05.956Z,10.50
2023-05-25T01:37:07.733Z,10.40
2023-05-25T01:39:11.109Z,10.30
2023-05-25T01:41:12.759Z,10.30
2023-05-25T01:43:14.481Z,10.30
2023-05-25T01:45:16.749Z,10.30
2023-05-25T01:47:37.256Z,10.30
2023-05-25T01:49:57.580Z,10.30
2023-05-25T01:52:25.544Z,10.40
2023-05-25T01:54:35.756Z,10.40
2023-05-25T01:56:38.350Z,10.30
2023-05-25T01:58:43.681Z,10.10
2023-05-25T02:00:46.992Z,10.20
2023-05-25T02:02:50.411Z,10.20
2023-05-25T02:04:53.784Z,10.10
2023-05-25T02:06:55.659Z,10.00
2023-05-25T02:08:57.315Z,10.00
2023-05-25T02:10:59.099Z,10.00
2023-05-25T02:13:00.743Z,9.90
2023-05-25T02:15:02.540Z,10.00
2023-05-25T10:03:15.042Z,9.90
2023-05-25T10:05:17.161Z,19.30
2023-05-25T10:07:19.788Z,19.50
2023-05-25T10:09:21.605Z,19.60
2023-05-25T10:11:24.612Z,19.20
2023-05-25T10:13:27.072Z,18.90
2023-05-25T10:15:29.596Z,19.10
2023-05-25T10:17:33.319Z,19.70
2023-05-25T10:19:42.073Z,19.50
2023-05-25T10:21:47.912Z,19.70
2023-05-25T10:23:52.214Z,20.50
2023-05-25T10:25:55.193Z,20.70
2023-05-25T10:27:57.501Z,20.70
2023-05-25T10:30:01.837Z,20.80
2023-05-25T10:32:04.271Z,21.10
2023-05-25T10:34:06.166Z,20.70
2023-05-25T10:36:11.449Z,20.80
2023-05-25T10:38:13.604Z,20.60
2023-05-25T10:40:15.669Z,20.60
2023-05-25T10:42:18.297Z,20.80
2023-05-25T10:44:20.382Z,20.90
2023-05-25T10:46:22.257Z,21.10
2023-05-25T10:48:24.816Z,20.90
2023-05-25T10:50:27.185Z,20.80
2023-05-25T10:52:29.827Z,20.90
2023-05-25T10:54:33.671Z,20.90
2023-05-25T10:56:35.397Z,21.40
2023-05-25T10:58:40.784Z,21.60
2023-05-25T11:00:42.984Z,21.20
2023-05-25T11:02:48.573Z,21.40
2023-05-25T11:04:50.534Z,21.40
2023-05-25T11:06:52.199Z,21.40
2023-05-25T11:08:54.917Z,21.40
2023-05-25T11:10:58.820Z,21.00
2023-05-25T12:32:54.543Z,21.50
2023-05-25T12:35:03.441Z,26.50
2023-05-25T12:55:27.525Z,26.00
2023-05-25T12:57:34.988Z,27.00
2023-05-25T12:59:36.980Z,28.00
2023-05-25T13:01:40.615Z,26.80
2023-05-25T13:03:42.297Z,25.70
2023-05-25T13:05:46.410Z,24.60
2023-05-25T13:07:48.290Z,23.90
2023-05-25T13:09:50.012Z,23.30
2023-05-25T13:11:51.771Z,22.80
2023-05-25T13:13:53.532Z,22.80
2023-05-25T13:15:55.247Z,23.30
2023-05-25T13:17:59.909Z,23.90
2023-05-25T13:20:01.665Z,24.00
2023-05-25T13:22:03.539Z,24.00
2023-05-25T13:24:05.677Z,23.90
2023-05-25T13:26:07.498Z,23.90
2023-05-25T13:28:09.201Z,23.40
2023-05-25T13:30:11.941Z,23.40
2023-05-25T13:32:13.668Z,23.10
2023-05-25T13:34:15.410Z,23.00
2023-05-25T13:36:17.160Z,23.70
2023-05-25T13:38:19.644Z,24.00
2023-05-25T13:40:21.456Z,24.80
2023-05-25T13:42:23.132Z,24.40
2023-05-25T13:44:24.739Z,24.60
2023-05-25T13:48:35.136Z,24.20
2023-05-25T13:50:36.884Z,24.20
2023-05-25T13:52:38.527Z,24.10
2023-05-25T13:54:40.322Z,23.70
2023-05-25T13:56:42.683Z,23.70
2023-05-25T13:58:44.440Z,23.60
2023-05-25T14:00:46.598Z,23.60
2023-05-25T14:04:50.626Z,23.80
2023-05-25T14:06:52.365Z,23.90
2023-05-25T14:08:54.208Z,23.80
2023-05-25T14:10:55.896Z,23.70
2023-05-25T14:12:57.612Z,23.90
2023-05-25T14:14:59.337Z,24.00
2023-05-25T14:17:01.308Z,23.90
2023-05-25T14:19:03.662Z,24.00
2023-05-25T14:21:05.425Z,24.00
2023-05-25T14:23:07.239Z,23.40
2023-05-25T14:25:09.052Z,22.80
2023-05-25T14:27:10.913Z,22.60
2023-05-25T14:29:13.022Z,22.70
2023-05-25T14:31:14.856Z,23.40
2023-05-25T14:33:17.340Z,24.40
2023-05-25T14:35:19.241Z,24.60
2023-05-25T14:37:21.059Z,25.00
2023-05-25T14:39:22.793Z,24.40
2023-05-25T14:41:24.466Z,24.40
2023-05-25T14:43:26.182Z,24.00
2023-05-25T14:45:27.905Z,24.50
2023-05-25T14:47:29.582Z,24.00
2023-05-25T14:49:31.244Z,24.20
2023-05-25T14:51:32.941Z,24.40
2023-05-25T14:53:34.669Z,24.30
2023-05-25T14:55:36.335Z,24.20
2023-05-25T14:57:38.023Z,23.90
2023-05-25T14:59:39.746Z,23.40
2023-05-25T15:01:41.471Z,23.30
2023-05-25T15:03:43.160Z,23.50
2023-05-25T15:05:45.258Z,24.20
2023-05-25T15:07:47.312Z,24.10
2023-05-25T15:09:49.016Z,24.60
2023-05-25T15:11:50.645Z,25.00
2023-05-25T15:13:52.367Z,24.40
2023-05-25T15:15:57.044Z,23.50
2023-05-25T15:17:58.805Z,23.40
2023-05-25T15:20:00.988Z,23.20
2023-05-25T15:22:03.480Z,23.50
2023-05-25T15:24:05.454Z,23.90
2023-05-25T15:26:08.157Z,24.20
2023-05-25T15:28:09.982Z,24.40
2023-05-25T15:30:11.841Z,25.10
2023-05-25T15:32:17.759Z,25.90
2023-05-25T15:34:20.085Z,25.70
2023-05-25T15:48:34.744Z,26.40
2023-05-25T15:50:36.471Z,28.00
2023-05-25T15:52:38.216Z,28.10
2023-05-25T15:54:39.963Z,28.90
2023-05-25T15:56:41.675Z,30.40
2023-05-25T15:58:46.990Z,28.10
2023-05-25T16:00:48.761Z,29.20
2023-05-25T16:02:50.572Z,29.20
2023-05-25T16:04:52.436Z,28.30
2023-05-25T16:06:54.245Z,29.20
2023-05-25T16:08:57.096Z,29.00
2023-05-25T16:10:58.805Z,27.80
2023-05-25T16:13:00.457Z,28.30
2023-05-25T16:15:02.114Z,28.10
2023-05-25T16:17:03.904Z,28.30
2023-05-25T16:19:05.672Z,28.70
2023-05-25T16:21:07.351Z,28.20
2023-05-25T16:23:09.074Z,27.80
2023-05-25T16:25:10.961Z,27.00
2023-05-25T16:27:12.812Z,26.80
2023-05-25T16:29:14.496Z,26.60
2023-05-25T16:31:17.294Z,26.30
2023-05-25T16:33:18.999Z,26.50
2023-05-25T16:35:20.746Z,26.70
2023-05-25T16:37:22.409Z,26.10
2023-05-25T16:39:24.052Z,26.30
2023-05-25T16:41:27.424Z,26.10
2023-05-25T16:43:29.143Z,25.90
2023-05-25T16:45:30.789Z,26.30
2023-05-25T16:47:32.465Z,26.20
2023-05-25T16:49:34.178Z,26.10
2023-05-25T16:51:37.786Z,25.50
2023-05-25T16:53:39.522Z,25.20
2023-05-25T16:55:41.238Z,25.50
2023-05-25T16:57:42.942Z,25.50
2023-05-25T16:59:45.558Z,24.80
2023-05-25T17:01:47.410Z,24.70
2023-05-25T17:03:49.305Z,25.30
2023-05-25T17:05:53.754Z,24.70
2023-05-25T17:07:55.659Z,25.00
2023-05-25T17:09:57.272Z,24.70
2023-05-25T17:12:01.061Z,25.00
2023-05-25T17:14:02.757Z,24.80
2023-05-25T17:16:04.499Z,24.60
2023-05-25T17:18:06.425Z,24.70
2023-05-25T17:20:08.354Z,25.00
2023-05-25T17:22:10.532Z,24.70
2023-05-25T17:24:12.172Z,24.40
2023-05-25T17:26:13.862Z,24.20
2023-05-25T17:28:15.503Z,23.90
2023-05-25T17:30:17.240Z,23.90
2023-05-25T17:32:19.222Z,23.90
2023-05-25T17:34:21.056Z,23.50
2023-05-25T17:36:25.793Z,23.70
2023-05-25T17:38:27.745Z,23.50
2023-05-25T17:40:29.436Z,23.60
2023-05-25T17:42:31.149Z,23.70
2023-05-25T17:44:32.915Z,23.90
2023-05-25T17:46:34.765Z,23.40
2023-05-25T17:48:37.275Z,23.50
2023-05-25T17:50:38.926Z,23.70
2023-05-25T17:52:40.928Z,23.60
2023-05-25T17:54:42.589Z,23.90
2023-05-25T17:56:44.564Z,24.10
2023-05-25T17:58:47.646Z,23.90
2023-05-25T18:00:49.817Z,23.70
2023-05-25T18:02:52.015Z,23.50
2023-05-25T18:04:53.903Z,23.40
2023-05-25T18:06:55.667Z,23.20
2023-05-25T18:10:59.492Z,23.00
2023-05-25T18:13:01.201Z,22.40
2023-05-25T18:15:03.268Z,22.30
2023-05-25T18:17:05.255Z,22.00
2023-05-25T18:19:07.447Z,21.90
2023-05-25T18:21:09.078Z,21.80
2023-05-25T18:23:10.860Z,21.70
2023-05-25T18:25:12.710Z,21.50
2023-05-25T18:27:14.483Z,21.40
2023-05-25T18:29:16.429Z,21.30
2023-05-25T18:31:19.999Z,21.30
2023-05-25T18:33:21.841Z,21.20
2023-05-25T18:35:23.739Z,21.00
2023-05-25T18:37:26.454Z,20.90
2023-05-25T18:39:28.088Z,20.90
2023-05-25T18:41:29.889Z,20.90
2023-05-25T18:43:31.521Z,20.70
2023-05-25T18:45:33.352Z,20.60
2023-05-25T18:47:35.140Z,20.60
2023-05-25T18:49:38.034Z,20.30
2023-05-25T18:51:40.186Z,20.30
2023-05-25T18:53:41.897Z,20.30
2023-05-25T18:55:43.674Z,20.20
2023-05-25T18:57:45.660Z,20.10
2023-05-25T18:59:47.316Z,19.90
2023-05-25T19:01:49.950Z,19.90
2023-05-25T19:03:51.821Z,19.90
2023-05-25T19:05:53.549Z,19.80
2023-05-25T19:07:59.621Z,19.70
2023-05-25T19:10:01.894Z,19.60
2023-05-25T19:12:04.726Z,19.50
2023-05-25T19:14:06.553Z,19.40
2023-05-25T19:16:08.710Z,19.30
